Time;durP1;ratioP1;P1;durP2;ratioP2;P2;SDS_P1;SDS_P2;PMS_P1;PMS_P2;Temp;Humidity;BMP_temperature;BMP_pressure;BME280_temperature;BME280_humidity;BME280_pressure;Samples;Min_cycle;Max_cycle;Signal;HPM_P1;HPM_P2
2023/08/19 00:01:08;;;;;;;20.30;18.50;;;;;;;-128.00;-1.00;-1.00;105835;1251;1006011;-71
2023/08/19 00:03:35;;;;;;;19.20;17.60;;;;;;;-128.00;-1.00;-1.00;105664;1251;1004288;-71
2023/08/19 00:06:07;;;;;;;17.80;16.30;;;;;;;-128.00;-1.00;-1.00;105801;1251;1005022;-70
2023/08/19 00:08:34;;;;;;;18.80;17.20;;;;;;;-128.00;-1.00;-1.00;105838;1250;1055527;-71
2023/08/19 00:11:02;;;;;;;18.90;17.30;;;;;;;-128.00;-1.00;-1.00;105826;1251;1003487;-70
2023/08/19 00:13:30;;;;;;;18.00;16.50;;;;;;;-128.00;-1.00;-1.00;105810;1251;1004470;-71
2023/08/19 00:15:56;;;;;;;17.30;15.60;;;;;;;-128.00;-1.00;-1.00;105824;1251;1004847;-70
2023/08/19 00:18:23;;;;;;;18.00;16.20;;;;;;;-128.00;-1.00;-1.00;105855;1251;1004522;-72
2023/08/19 00:20:50;;;;;;;19.40;17.60;;;;;;;-128.00;-1.00;-1.00;105873;1251;1005414;-70
2023/08/19 00:23:17;;;;;;;18.50;16.80;;;;;;;-128.00;-1.00;-1.00;105810;1250;1004192;-70
2023/08/19 00:25:43;;;;;;;19.30;17.50;;;;;;;-128.00;-1.00;-1.00;105825;1251;1005287;-69
2023/08/19 00:28:10;;;;;;;19.50;17.80;;;;;;;-128.00;-1.00;-1.00;105832;1251;1004306;-70
2023/08/19 00:30:37;;;;;;;19.90;18.10;;;;;;;-128.00;-1.00;-1.00;105824;1251;1004391;-71
2023/08/19 00:33:03;;;;;;;19.00;17.50;;;;;;;-128.00;-1.00;-1.00;105813;1250;1004687;-70
2023/08/19 00:35:32;;;;;;;19.00;17.30;;;;;;;-128.00;-1.00;-1.00;105731;1251;1004503;-70
2023/08/19 00:37:59;;;;;;;21.00;19.20;;;;;;;-128.00;-1.00;-1.00;105754;1251;1046324;-70
2023/08/19 00:40:25;;;;;;;18.90;17.30;;;;;;;-128.00;-1.00;-1.00;105800;1251;1003596;-71
2023/08/19 00:42:52;;;;;;;21.30;19.40;;;;;;;-128.00;-1.00;-1.00;105609;1251;1005802;-70
2023/08/19 00:45:18;;;;;;;20.60;18.80;;;;;;;-128.00;-1.00;-1.00;105818;1251;1005406;-70
2023/08/19 00:47:46;;;;;;;20.00;18.10;;;;;;;-128.00;-1.00;-1.00;105776;1251;1003775;-69
2023/08/19 00:50:14;;;;;;;22.40;20.30;;;;;;;-128.00;-1.00;-1.00;105857;1251;1004406;-70
2023/08/19 00:52:43;;;;;;;24.70;22.70;;;;;;;-128.00;-1.00;-1.00;105602;1251;1004127;-70
2023/08/19 00:55:10;;;;;;;21.20;19.40;;;;;;;-128.00;-1.00;-1.00;105803;1251;1061644;-70
2023/08/19 00:57:37;;;;;;;21.30;19.50;;;;;;;-128.00;-1.00;-1.00;105823;1251;1005252;-71
2023/08/19 01:00:05;;;;;;;19.50;17.60;;;;;;;-128.00;-1.00;-1.00;105816;1251;1004817;-70
2023/08/19 01:02:32;;;;;;;19.80;18.20;;;;;;;-128.00;-1.00;-1.00;105783;1251;1004008;-70
2023/08/19 01:04:59;;;;;;;20.90;19.00;;;;;;;-128.00;-1.00;-1.00;105846;1251;1003387;-70
2023/08/19 01:07:35;;;;;;;19.90;18.10;;;;;;;-128.00;-1.00;-1.00;105841;1251;1003466;-70
2023/08/19 01:10:12;;;;;;;19.20;17.50;;;;;;;-128.00;-1.00;-1.00;105816;1251;1056144;-71
2023/08/19 01:13:06;;;;;;;18.30;16.50;;;;;;;-128.00;-1.00;-1.00;105614;1251;1059110;-70
2023/08/19 01:15:36;;;;;;;16.90;15.30;;;;;;;-128.00;-1.00;-1.00;105775;1251;1046575;-70
2023/08/19 01:18:05;;;;;;;17.00;15.60;;;;;;;-128.00;-1.00;-1.00;105864;1251;1047750;-70
2023/08/19 01:20:34;;;;;;;17.90;16.30;;;;;;;-128.00;-1.00;-1.00;105834;1250;1061688;-70
2023/08/19 01:23:13;;;;;;;18.50;16.80;;;;;;;-128.00;-1.00;-1.00;105801;1251;1057194;-70
2023/08/19 01:25:42;;;;;;;15.20;14.00;;;;;;;-128.00;-1.00;-1.00;105830;1251;1058823;-70
2023/08/19 01:28:09;;;;;;;14.50;12.90;;;;;;;-128.00;-1.00;-1.00;105798;1251;1048280;-70
2023/08/19 01:30:35;;;;;;;12.30;11.30;;;;;;;-128.00;-1.00;-1.00;105739;1251;1003874;-70
2023/08/19 01:33:03;;;;;;;11.60;10.50;;;;;;;-128.00;-1.00;-1.00;105825;1250;1004071;-70
2023/08/19 01:35:39;;;;;;;12.10;11.20;;;;;;;-128.00;-1.00;-1.00;105843;1253;1004447;-70
2023/08/19 01:38:10;;;;;;;12.40;11.30;;;;;;;-128.00;-1.00;-1.00;105825;1251;1058644;-70
2023/08/19 01:40:37;;;;;;;15.20;13.80;;;;;;;-128.00;-1.00;-1.00;105613;1251;1046732;-70
2023/08/19 01:43:08;;;;;;;34.70;31.50;;;;;;;-128.00;-1.00;-1.00;105852;1251;1005201;-70
2023/08/19 01:45:35;;;;;;;21.40;19.30;;;;;;;-128.00;-1.00;-1.00;105655;1251;1061180;-69
2023/08/19 01:48:01;;;;;;;16.90;15.50;;;;;;;-128.00;-1.00;-1.00;105805;1250;1003461;-70
2023/08/19 01:50:28;;;;;;;15.80;14.50;;;;;;;-128.00;-1.00;-1.00;105779;1251;1003827;-70
2023/08/19 01:52:54;;;;;;;18.80;17.20;;;;;;;-128.00;-1.00;-1.00;105806;1251;1004934;-70
2023/08/19 01:55:22;;;;;;;19.70;17.90;;;;;;;-128.00;-1.00;-1.00;105656;1251;1004645;-70
2023/08/19 01:57:48;;;;;;;23.40;21.40;;;;;;;-128.00;-1.00;-1.00;105813;1251;1004298;-70
2023/08/19 02:00:30;;;;;;;22.00;20.00;;;;;;;-128.00;-1.00;-1.00;105797;1251;1004665;-70
2023/08/19 02:02:56;;;;;;;21.10;19.00;;;;;;;-128.00;-1.00;-1.00;105750;1251;1060221;-70
2023/08/19 02:05:23;;;;;;;23.80;21.50;;;;;;;-128.00;-1.00;-1.00;105803;1251;1004236;-70
2023/08/19 02:07:50;;;;;;;21.10;19.20;;;;;;;-128.00;-1.00;-1.00;105814;1251;1003750;-70
2023/08/19 02:10:16;;;;;;;23.00;20.90;;;;;;;-128.00;-1.00;-1.00;105818;1251;1003629;-70
2023/08/19 02:12:43;;;;;;;21.20;19.40;;;;;;;-128.00;-1.00;-1.00;105662;1251;1005321;-71
2023/08/19 02:15:09;;;;;;;22.00;20.10;;;;;;;-128.00;-1.00;-1.00;105771;1251;1005633;-70
2023/08/19 02:17:36;;;;;;;19.50;17.70;;;;;;;-128.00;-1.00;-1.00;105808;1253;1004454;-70
2023/08/19 02:20:03;;;;;;;20.10;18.30;;;;;;;-128.00;-1.00;-1.00;105871;1251;1005247;-70
2023/08/19 02:22:29;;;;;;;20.70;19.00;;;;;;;-128.00;-1.00;-1.00;105770;1251;1004803;-70
2023/08/19 02:24:56;;;;;;;20.40;18.50;;;;;;;-128.00;-1.00;-1.00;105820;1251;1003805;-70
2023/08/19 02:27:24;;;;;;;17.70;16.00;;;;;;;-128.00;-1.00;-1.00;105848;1251;1003908;-70
2023/08/19 02:29:51;;;;;;;17.00;15.60;;;;;;;-128.00;-1.00;-1.00;105787;1251;1004218;-70
2023/08/19 02:32:18;;;;;;;16.40;14.80;;;;;;;-128.00;-1.00;-1.00;105832;1251;1004458;-71
2023/08/19 02:34:44;;;;;;;17.50;15.80;;;;;;;-128.00;-1.00;-1.00;105794;1251;1003990;-70
2023/08/19 02:37:13;;;;;;;16.80;15.40;;;;;;;-128.00;-1.00;-1.00;105830;1251;1004092;-70
2023/08/19 02:39:40;;;;;;;16.60;15.10;;;;;;;-128.00;-1.00;-1.00;105807;1251;1058485;-70
2023/08/19 02:42:06;;;;;;;18.10;16.70;;;;;;;-128.00;-1.00;-1.00;105832;1251;1003852;-71
2023/08/19 02:44:33;;;;;;;19.60;17.90;;;;;;;-128.00;-1.00;-1.00;105764;1251;1004276;-70
2023/08/19 02:46:59;;;;;;;20.00;18.30;;;;;;;-128.00;-1.00;-1.00;105676;1250;1004148;-70
2023/08/19 02:49:26;;;;;;;18.70;17.10;;;;;;;-128.00;-1.00;-1.00;105798;1251;1004492;-70
2023/08/19 02:51:53;;;;;;;16.70;15.30;;;;;;;-128.00;-1.00;-1.00;105827;1251;1004881;-70
2023/08/19 02:54:19;;;;;;;19.50;17.90;;;;;;;-128.00;-1.00;-1.00;105791;1251;1004043;-70
2023/08/19 02:56:47;;;;;;;18.20;16.50;;;;;;;-128.00;-1.00;-1.00;105819;1251;1006268;-70
2023/08/19 02:59:13;;;;;;;17.80;16.30;;;;;;;-128.00;-1.00;-1.00;105827;1251;1004509;-70
2023/08/19 03:01:41;;;;;;;21.00;19.10;;;;;;;-128.00;-1.00;-1.00;105834;1250;1003759;-70
2023/08/19 03:04:08;;;;;;;19.90;18.20;;;;;;;-128.00;-1.00;-1.00;105780;1251;1006303;-71
2023/08/19 03:06:34;;;;;;;21.40;19.60;;;;;;;-128.00;-1.00;-1.00;105828;1251;1004785;-70
2023/08/19 03:09:01;;;;;;;21.20;19.30;;;;;;;-128.00;-1.00;-1.00;105790;1251;1004912;-70
2023/08/19 03:11:29;;;;;;;19.70;17.90;;;;;;;-128.00;-1.00;-1.00;105904;1251;1005181;-71
2023/08/19 03:13:55;;;;;;;20.40;18.60;;;;;;;-128.00;-1.00;-1.00;105836;1250;1004194;-70
2023/08/19 03:16:22;;;;;;;19.90;17.90;;;;;;;-128.00;-1.00;-1.00;105803;1251;1003951;-70
2023/08/19 03:18:48;;;;;;;19.10;17.30;;;;;;;-128.00;-1.00;-1.00;105844;1251;1004546;-70
2023/08/19 03:21:15;;;;;;;19.60;17.90;;;;;;;-128.00;-1.00;-1.00;105847;1251;1004745;-70
2023/08/19 03:23:41;;;;;;;19.80;18.10;;;;;;;-128.00;-1.00;-1.00;105814;1251;1004408;-70
2023/08/19 03:26:08;;;;;;;20.60;18.60;;;;;;;-128.00;-1.00;-1.00;105913;1251;1004134;-70
2023/08/19 03:28:35;;;;;;;19.30;17.50;;;;;;;-128.00;-1.00;-1.00;105811;1251;1004500;-70
2023/08/19 03:31:11;;;;;;;18.40;16.50;;;;;;;-128.00;-1.00;-1.00;105852;1251;1003893;-71
2023/08/19 03:33:38;;;;;;;19.60;17.70;;;;;;;-128.00;-1.00;-1.00;105789;1251;1047621;-70
2023/08/19 03:36:05;;;;;;;21.20;19.10;;;;;;;-128.00;-1.00;-1.00;105824;1251;1004535;-70
2023/08/19 03:38:31;;;;;;;20.50;18.60;;;;;;;-128.00;-1.00;-1.00;105826;1251;1004220;-70
2023/08/19 03:40:58;;;;;;;20.40;18.60;;;;;;;-128.00;-1.00;-1.00;105814;1251;1004230;-71
2023/08/19 03:43:24;;;;;;;20.70;18.70;;;;;;;-128.00;-1.00;-1.00;105808;1251;1004153;-70
2023/08/19 03:45:51;;;;;;;18.40;16.70;;;;;;;-128.00;-1.00;-1.00;105815;1251;1004405;-70
2023/08/19 03:48:17;;;;;;;17.20;15.70;;;;;;;-128.00;-1.00;-1.00;105880;1251;1003757;-70
2023/08/19 03:50:44;;;;;;;15.20;14.00;;;;;;;-128.00;-1.00;-1.00;105835;1251;1003521;-70
2023/08/19 03:53:10;;;;;;;17.50;15.70;;;;;;;-128.00;-1.00;-1.00;105768;1251;1004963;-69
2023/08/19 03:55:37;;;;;;;15.90;14.50;;;;;;;-128.00;-1.00;-1.00;105676;1251;1003848;-70
2023/08/19 03:58:03;;;;;;;17.50;15.80;;;;;;;-128.00;-1.00;-1.00;105873;1251;1004002;-70
2023/08/19 04:00:30;;;;;;;17.50;15.80;;;;;;;-128.00;-1.00;-1.00;105681;1251;1003296;-71
2023/08/19 04:02:56;;;;;;;17.50;16.00;;;;;;;-128.00;-1.00;-1.00;105811;1250;1004251;-70
2023/08/19 04:05:23;;;;;;;17.40;15.60;;;;;;;-128.00;-1.00;-1.00;105828;1251;1004268;-70
2023/08/19 04:07:49;;;;;;;15.80;14.50;;;;;;;-128.00;-1.00;-1.00;105832;1251;1004002;-70
2023/08/19 04:10:17;;;;;;;20.70;18.90;;;;;;;-128.00;-1.00;-1.00;105801;1251;1003686;-70
2023/08/19 04:12:43;;;;;;;19.20;17.60;;;;;;;-128.00;-1.00;-1.00;105825;1251;1003220;-71
2023/08/19 04:15:10;;;;;;;18.80;17.10;;;;;;;-128.00;-1.00;-1.00;105785;1254;1004489;-70
2023/08/19 04:17:37;;;;;;;17.30;15.80;;;;;;;-128.00;-1.00;-1.00;105802;1251;1004747;-72
2023/08/19 04:20:08;;;;;;;16.90;15.60;;;;;;;-128.00;-1.00;-1.00;105800;1251;1004277;-71
2023/08/19 04:22:35;;;;;;;17.60;15.90;;;;;;;-128.00;-1.00;-1.00;105815;1251;1046682;-70
2023/08/19 04:25:02;;;;;;;16.30;14.90;;;;;;;-128.00;-1.00;-1.00;105843;1250;1004550;-71
2023/08/19 04:27:31;;;;;;;15.90;14.50;;;;;;;-128.00;-1.00;-1.00;105762;1251;1003587;-70
2023/08/19 04:29:57;;;;;;;16.90;15.50;;;;;;;-128.00;-1.00;-1.00;105806;1251;1059222;-70
2023/08/19 04:32:24;;;;;;;14.80;13.70;;;;;;;-128.00;-1.00;-1.00;105886;1251;1003910;-70
2023/08/19 04:34:50;;;;;;;16.80;15.30;;;;;;;-128.00;-1.00;-1.00;105851;1251;1004632;-72
2023/08/19 04:37:17;;;;;;;16.10;14.70;;;;;;;-128.00;-1.00;-1.00;105833;1251;1004474;-71
2023/08/19 04:39:44;;;;;;;14.60;13.50;;;;;;;-128.00;-1.00;-1.00;105825;1251;1004430;-70
2023/08/19 04:42:10;;;;;;;14.30;13.20;;;;;;;-128.00;-1.00;-1.00;105798;1251;1003966;-70
2023/08/19 04:44:37;;;;;;;14.50;13.40;;;;;;;-128.00;-1.00;-1.00;105826;1251;1004631;-70
2023/08/19 04:47:04;;;;;;;15.70;14.50;;;;;;;-128.00;-1.00;-1.00;105856;1251;1005037;-72
2023/08/19 04:49:30;;;;;;;14.40;13.20;;;;;;;-128.00;-1.00;-1.00;105813;1250;1004430;-70
2023/08/19 04:51:58;;;;;;;14.70;13.30;;;;;;;-128.00;-1.00;-1.00;105834;1251;1004395;-71
2023/08/19 04:54:24;;;;;;;14.30;13.10;;;;;;;-128.00;-1.00;-1.00;105796;1251;1005197;-70
2023/08/19 04:56:51;;;;;;;13.70;12.60;;;;;;;-128.00;-1.00;-1.00;105799;1251;1003795;-70
2023/08/19 04:59:17;;;;;;;13.80;12.70;;;;;;;-128.00;-1.00;-1.00;105819;1252;1004599;-70
2023/08/19 05:01:44;;;;;;;15.00;13.60;;;;;;;-128.00;-1.00;-1.00;105841;1250;1004496;-70
2023/08/19 05:04:10;;;;;;;14.50;13.30;;;;;;;-128.00;-1.00;-1.00;105782;1250;1004733;-70
2023/08/19 05:06:37;;;;;;;15.10;13.70;;;;;;;-128.00;-1.00;-1.00;105814;1251;1004441;-70
2023/08/19 05:09:03;;;;;;;12.20;11.20;;;;;;;-128.00;-1.00;-1.00;105803;1251;1004887;-70
2023/08/19 05:11:30;;;;;;;12.40;11.40;;;;;;;-128.00;-1.00;-1.00;105636;1251;1004622;-71
2023/08/19 05:13:56;;;;;;;12.50;11.60;;;;;;;-128.00;-1.00;-1.00;105822;1251;1004342;-70
2023/08/19 05:16:23;;;;;;;12.90;12.00;;;;;;;-128.00;-1.00;-1.00;105805;1250;1004500;-70
2023/08/19 05:19:03;;;;;;;12.60;11.60;;;;;;;-128.00;-1.00;-1.00;105858;1251;1004733;-71
2023/08/19 05:21:30;;;;;;;12.30;11.40;;;;;;;-128.00;-1.00;-1.00;105835;1251;1044570;-71
2023/08/19 05:23:56;;;;;;;13.30;11.90;;;;;;;-128.00;-1.00;-1.00;105848;1251;1004157;-71
2023/08/19 05:26:23;;;;;;;11.70;10.60;;;;;;;-128.00;-1.00;-1.00;105853;1251;1004527;-71
2023/08/19 05:28:49;;;;;;;12.00;11.10;;;;;;;-128.00;-1.00;-1.00;105848;1250;1006523;-71
2023/08/19 05:31:16;;;;;;;11.60;10.80;;;;;;;-128.00;-1.00;-1.00;105634;1251;1003951;-71
2023/08/19 05:33:42;;;;;;;11.20;10.40;;;;;;;-128.00;-1.00;-1.00;105805;1251;1003888;-71
2023/08/19 05:36:09;;;;;;;11.30;10.50;;;;;;;-128.00;-1.00;-1.00;105710;1251;1005011;-71
2023/08/19 05:38:35;;;;;;;11.40;10.50;;;;;;;-128.00;-1.00;-1.00;105858;1251;1003830;-71
2023/08/19 05:41:02;;;;;;;10.90;9.90;;;;;;;-128.00;-1.00;-1.00;105847;1251;1003823;-71
2023/08/19 05:43:28;;;;;;;11.20;10.20;;;;;;;-128.00;-1.00;-1.00;105823;1251;1004361;-71
2023/08/19 05:45:55;;;;;;;11.10;10.10;;;;;;;-128.00;-1.00;-1.00;105824;1251;1004171;-70
2023/08/19 05:48:21;;;;;;;11.60;10.70;;;;;;;-128.00;-1.00;-1.00;105850;1251;1004532;-71
2023/08/19 05:50:48;;;;;;;10.40;9.50;;;;;;;-128.00;-1.00;-1.00;105823;1251;1004917;-71
2023/08/19 05:53:14;;;;;;;9.80;9.10;;;;;;;-128.00;-1.00;-1.00;105831;1251;1003774;-71
2023/08/19 05:55:41;;;;;;;10.10;9.30;;;;;;;-128.00;-1.00;-1.00;105835;1251;1004402;-70
2023/08/19 05:58:07;;;;;;;10.00;9.20;;;;;;;-128.00;-1.00;-1.00;105819;1254;1003452;-71
2023/08/19 06:00:34;;;;;;;9.20;8.60;;;;;;;-128.00;-1.00;-1.00;105667;1251;1003743;-70
2023/08/19 06:03:00;;;;;;;10.30;9.30;;;;;;;-128.00;-1.00;-1.00;105858;1251;1004076;-71
2023/08/19 06:05:27;;;;;;;9.40;8.60;;;;;;;-128.00;-1.00;-1.00;105844;1251;1005551;-71
2023/08/19 06:07:53;;;;;;;10.40;9.50;;;;;;;-128.00;-1.00;-1.00;105822;1251;1003354;-71
2023/08/19 06:10:20;;;;;;;9.60;8.90;;;;;;;-128.00;-1.00;-1.00;105633;1251;1003718;-71
2023/08/19 06:12:46;;;;;;;9.80;9.10;;;;;;;-128.00;-1.00;-1.00;105789;1251;1004270;-71
2023/08/19 06:15:13;;;;;;;9.50;8.70;;;;;;;-128.00;-1.00;-1.00;105668;1251;1006391;-71
2023/08/19 06:17:40;;;;;;;9.90;9.00;;;;;;;-128.00;-1.00;-1.00;105858;1251;1004434;-71
2023/08/19 06:20:07;;;;;;;9.60;8.80;;;;;;;-128.00;-1.00;-1.00;105837;1251;1004063;-71
2023/08/19 06:22:33;;;;;;;9.50;8.70;;;;;;;-128.00;-1.00;-1.00;105818;1251;1004535;-72
2023/08/19 06:25:01;;;;;;;9.00;8.30;;;;;;;-128.00;-1.00;-1.00;105827;1251;1003861;-71
2023/08/19 06:27:28;;;;;;;9.10;8.30;;;;;;;-128.00;-1.00;-1.00;105878;1251;1004158;-71
2023/08/19 06:29:54;;;;;;;8.80;8.00;;;;;;;-128.00;-1.00;-1.00;105816;1251;1004785;-71
2023/08/19 06:32:21;;;;;;;9.00;8.20;;;;;;;-128.00;-1.00;-1.00;105748;1251;1004517;-71
2023/08/19 06:34:48;;;;;;;8.90;8.10;;;;;;;-128.00;-1.00;-1.00;105809;1251;1004751;-71
2023/08/19 06:37:25;;;;;;;9.00;8.20;;;;;;;-128.00;-1.00;-1.00;105800;1251;1003831;-71
2023/08/19 06:39:57;;;;;;;8.90;8.10;;;;;;;-128.00;-1.00;-1.00;105805;1251;1061246;-70
2023/08/19 06:42:25;;;;;;;9.20;8.50;;;;;;;-128.00;-1.00;-1.00;105812;1251;1055337;-71
2023/08/19 06:44:57;;;;;;;9.10;8.30;;;;;;;-128.00;-1.00;-1.00;105834;1251;1005785;-70
2023/08/19 06:47:24;;;;;;;8.70;8.00;;;;;;;-128.00;-1.00;-1.00;105813;1251;1044455;-71
2023/08/19 06:49:50;;;;;;;10.10;9.30;;;;;;;-128.00;-1.00;-1.00;105835;1251;1003280;-71
2023/08/19 06:52:18;;;;;;;8.90;8.30;;;;;;;-128.00;-1.00;-1.00;105657;1251;1005300;-71
2023/08/19 06:54:45;;;;;;;9.70;8.80;;;;;;;-128.00;-1.00;-1.00;105632;1250;1004449;-70
2023/08/19 06:57:21;;;;;;;9.10;8.40;;;;;;;-128.00;-1.00;-1.00;105807;1251;1004678;-70
2023/08/19 06:59:51;;;;;;;9.90;8.10;;;;;;;-128.00;-1.00;-1.00;105762;1251;1044322;-72
2023/08/19 07:02:18;;;;;;;12.80;8.90;;;;;;;-128.00;-1.00;-1.00;105836;1251;1046501;-71
2023/08/19 07:04:48;;;;;;;9.30;8.40;;;;;;;-128.00;-1.00;-1.00;105824;1251;1003880;-71
2023/08/19 07:07:21;;;;;;;9.30;8.50;;;;;;;-128.00;-1.00;-1.00;105752;1251;1056577;-71
2023/08/19 07:09:48;;;;;;;9.80;8.90;;;;;;;-128.00;-1.00;-1.00;105637;1251;1059262;-71
2023/08/19 07:12:15;;;;;;;9.80;9.00;;;;;;;-128.00;-1.00;-1.00;105810;1251;1004587;-71
2023/08/19 07:14:42;;;;;;;11.60;10.60;;;;;;;-128.00;-1.00;-1.00;105802;1251;1004335;-71
2023/08/19 07:17:09;;;;;;;11.20;9.80;;;;;;;-128.00;-1.00;-1.00;105844;1251;1004798;-71
2023/08/19 07:19:39;;;;;;;10.30;9.40;;;;;;;-128.00;-1.00;-1.00;105827;1251;1005970;-71
2023/08/19 07:22:07;;;;;;;10.50;9.40;;;;;;;-128.00;-1.00;-1.00;105861;1251;1059850;-71
2023/08/19 07:24:33;;;;;;;9.80;9.00;;;;;;;-128.00;-1.00;-1.00;105791;1251;1004195;-71
2023/08/19 07:27:03;;;;;;;10.30;9.40;;;;;;;-128.00;-1.00;-1.00;105825;1251;1004578;-71
2023/08/19 07:29:30;;;;;;;11.40;10.40;;;;;;;-128.00;-1.00;-1.00;105771;1251;1060557;-71
2023/08/19 07:31:58;;;;;;;9.80;9.00;;;;;;;-128.00;-1.00;-1.00;105874;1250;1005323;-71
2023/08/19 07:34:25;;;;;;;10.50;9.70;;;;;;;-128.00;-1.00;-1.00;105864;1251;1004830;-72
2023/08/19 07:36:54;;;;;;;11.40;10.30;;;;;;;-128.00;-1.00;-1.00;105831;1250;1003981;-71
2023/08/19 07:39:22;;;;;;;11.20;10.30;;;;;;;-128.00;-1.00;-1.00;105915;1251;1046701;-71
2023/08/19 07:41:49;;;;;;;10.60;9.60;;;;;;;-128.00;-1.00;-1.00;105809;1251;1003788;-72
2023/08/19 07:44:15;;;;;;;11.40;10.40;;;;;;;-128.00;-1.00;-1.00;105799;1251;1003731;-71
2023/08/19 07:46:42;;;;;;;12.70;9.90;;;;;;;-128.00;-1.00;-1.00;105788;1251;1005000;-71
2023/08/19 07:49:08;;;;;;;10.30;9.50;;;;;;;-128.00;-1.00;-1.00;105778;1251;1003649;-71
2023/08/19 07:51:35;;;;;;;11.70;10.70;;;;;;;-128.00;-1.00;-1.00;105826;1251;1004087;-71
2023/08/19 07:54:02;;;;;;;10.60;9.80;;;;;;;-128.00;-1.00;-1.00;105829;1251;1004410;-71
2023/08/19 07:56:28;;;;;;;11.00;10.00;;;;;;;-128.00;-1.00;-1.00;105799;1251;1004542;-71
2023/08/19 07:58:55;;;;;;;10.60;9.80;;;;;;;-128.00;-1.00;-1.00;105765;1251;1004242;-70
2023/08/19 08:01:21;;;;;;;11.60;10.60;;;;;;;-128.00;-1.00;-1.00;105823;1251;1004166;-71
2023/08/19 08:03:48;;;;;;;11.50;10.50;;;;;;;-128.00;-1.00;-1.00;105679;1251;1003654;-71
2023/08/19 08:06:15;;;;;;;11.70;10.60;;;;;;;-128.00;-1.00;-1.00;105675;1251;1004526;-70
2023/08/19 08:08:42;;;;;;;11.10;10.10;;;;;;;-128.00;-1.00;-1.00;105771;1251;1003599;-70
2023/08/19 08:11:08;;;;;;;10.80;9.80;;;;;;;-128.00;-1.00;-1.00;105828;1251;1004618;-71
2023/08/19 08:13:35;;;;;;;11.20;10.20;;;;;;;-128.00;-1.00;-1.00;105786;1251;1004221;-71
2023/08/19 08:16:02;;;;;;;10.90;10.00;;;;;;;-128.00;-1.00;-1.00;105814;1251;1004302;-71
2023/08/19 08:18:29;;;;;;;10.40;9.50;;;;;;;-128.00;-1.00;-1.00;105845;1251;1005061;-70
2023/08/19 08:20:55;;;;;;;10.40;9.50;;;;;;;-128.00;-1.00;-1.00;105822;1251;1005126;-71
2023/08/19 08:23:22;;;;;;;11.30;10.10;;;;;;;-128.00;-1.00;-1.00;105814;1251;1004001;-71
2023/08/19 08:25:49;;;;;;;11.10;10.30;;;;;;;-128.00;-1.00;-1.00;105800;1254;1003934;-72
2023/08/19 08:28:15;;;;;;;10.20;9.30;;;;;;;-128.00;-1.00;-1.00;105857;1251;1003940;-72
2023/08/19 08:30:42;;;;;;;11.10;10.10;;;;;;;-128.00;-1.00;-1.00;105802;1251;1004443;-72
2023/08/19 08:33:09;;;;;;;10.30;9.30;;;;;;;-128.00;-1.00;-1.00;105805;1251;1006187;-72
2023/08/19 08:35:36;;;;;;;10.40;9.60;;;;;;;-128.00;-1.00;-1.00;105769;1251;1004536;-72
2023/08/19 08:38:02;;;;;;;10.60;9.60;;;;;;;-128.00;-1.00;-1.00;105763;1251;1004751;-72
2023/08/19 08:40:32;;;;;;;9.40;8.60;;;;;;;-128.00;-1.00;-1.00;105833;1251;1004147;-72
2023/08/19 08:43:02;;;;;;;9.90;9.00;;;;;;;-128.00;-1.00;-1.00;105799;1251;1061145;-72
2023/08/19 08:45:31;;;;;;;10.60;9.70;;;;;;;-128.00;-1.00;-1.00;105777;1251;1056004;-72
2023/08/19 08:48:02;;;;;;;10.50;9.60;;;;;;;-128.00;-1.00;-1.00;105824;1251;1059893;-72
2023/08/19 08:50:29;;;;;;;10.60;9.70;;;;;;;-128.00;-1.00;-1.00;105762;1251;1044993;-72
2023/08/19 08:52:57;;;;;;;10.60;9.70;;;;;;;-128.00;-1.00;-1.00;105637;1251;1004100;-72
2023/08/19 08:55:24;;;;;;;9.70;9.00;;;;;;;-128.00;-1.00;-1.00;105829;1251;1004552;-72
2023/08/19 08:57:50;;;;;;;9.60;8.70;;;;;;;-128.00;-1.00;-1.00;105822;1254;1003687;-73
2023/08/19 09:00:18;;;;;;;9.10;8.40;;;;;;;-128.00;-1.00;-1.00;105787;1253;1004383;-72
2023/08/19 09:02:46;;;;;;;9.00;8.30;;;;;;;-128.00;-1.00;-1.00;105821;1251;1004249;-72
2023/08/19 09:05:13;;;;;;;10.40;9.60;;;;;;;-128.00;-1.00;-1.00;105813;1251;1003974;-72
2023/08/19 09:07:41;;;;;;;10.30;9.60;;;;;;;-128.00;-1.00;-1.00;105726;1251;1003988;-72
2023/08/19 09:10:15;;;;;;;10.30;9.40;;;;;;;-128.00;-1.00;-1.00;105632;1251;1003830;-72
2023/08/19 09:12:55;;;;;;;10.00;9.20;;;;;;;-128.00;-1.00;-1.00;105807;1251;1059641;-72
2023/08/19 09:15:24;;;;;;;9.40;8.60;;;;;;;-128.00;-1.00;-1.00;105811;1250;1045754;-72
2023/08/19 09:17:51;;;;;;;9.60;8.80;;;;;;;-128.00;-1.00;-1.00;105829;1253;1004228;-72
2023/08/19 09:20:18;;;;;;;9.40;8.70;;;;;;;-128.00;-1.00;-1.00;105853;1251;1004826;-70
2023/08/19 09:22:45;;;;;;;10.10;9.40;;;;;;;-128.00;-1.00;-1.00;105795;1251;1004176;-71
2023/08/19 09:25:15;;;;;;;8.90;8.20;;;;;;;-128.00;-1.00;-1.00;105815;1251;1003729;-71
2023/08/19 09:27:42;;;;;;;9.20;8.50;;;;;;;-128.00;-1.00;-1.00;105773;1251;1044750;-72
2023/08/19 09:30:14;;;;;;;8.80;8.10;;;;;;;-128.00;-1.00;-1.00;105805;1251;1003905;-72
2023/08/19 09:32:41;;;;;;;10.20;8.90;;;;;;;-128.00;-1.00;-1.00;105805;1252;1062159;-71
2023/08/19 09:35:11;;;;;;;8.80;8.10;;;;;;;-128.00;-1.00;-1.00;105820;1251;1003855;-71
2023/08/19 09:37:40;;;;;;;9.70;9.00;;;;;;;-128.00;-1.00;-1.00;105807;1251;1059467;-71
2023/08/19 09:40:10;;;;;;;8.60;7.90;;;;;;;-128.00;-1.00;-1.00;105756;1251;1045187;-71
2023/08/19 09:42:38;;;;;;;8.40;7.80;;;;;;;-128.00;-1.00;-1.00;105783;1251;1046934;-71
2023/08/19 09:45:06;;;;;;;8.50;7.80;;;;;;;-128.00;-1.00;-1.00;105635;1251;1003487;-70
2023/08/19 09:47:49;;;;;;;8.50;7.90;;;;;;;-128.00;-1.00;-1.00;105796;1251;1005431;-70
2023/08/19 09:50:18;;;;;;;7.70;7.10;;;;;;;-128.00;-1.00;-1.00;105829;1251;1058909;-71
2023/08/19 09:52:59;;;;;;;9.00;8.30;;;;;;;-128.00;-1.00;-1.00;105766;1251;1044603;-70
2023/08/19 09:55:28;;;;;;;9.00;8.30;;;;;;;-128.00;-1.00;-1.00;105778;1251;1046507;-71
2023/08/19 09:57:56;;;;;;;8.00;7.50;;;;;;;-128.00;-1.00;-1.00;105669;1251;1061365;-71
2023/08/19 10:00:23;;;;;;;9.10;8.00;;;;;;;-128.00;-1.00;-1.00;105838;1255;1004006;-71
2023/08/19 10:02:49;;;;;;;8.20;7.50;;;;;;;-128.00;-1.00;-1.00;105755;1251;1003668;-71
2023/08/19 10:05:17;;;;;;;8.60;7.80;;;;;;;-128.00;-1.00;-1.00;105795;1251;1005350;-71
2023/08/19 10:07:58;;;;;;;7.80;7.20;;;;;;;-128.00;-1.00;-1.00;105816;1251;1003192;-71
2023/08/19 10:10:30;;;;;;;8.00;7.30;;;;;;;-128.00;-1.00;-1.00;105801;1251;1061658;-71
2023/08/19 10:12:57;;;;;;;8.60;7.80;;;;;;;-128.00;-1.00;-1.00;105811;1251;1055460;-71
2023/08/19 10:15:26;;;;;;;7.70;6.70;;;;;;;-128.00;-1.00;-1.00;105811;1251;1004089;-71
2023/08/19 10:17:57;;;;;;;7.20;6.70;;;;;;;-128.00;-1.00;-1.00;105810;1251;1045644;-71
2023/08/19 10:20:26;;;;;;;8.60;7.80;;;;;;;-128.00;-1.00;-1.00;105815;1251;1046659;-71
2023/08/19 10:22:56;;;;;;;8.20;6.90;;;;;;;-128.00;-1.00;-1.00;105764;1251;1061092;-72
2023/08/19 10:25:23;;;;;;;7.50;6.90;;;;;;;-128.00;-1.00;-1.00;105733;1252;1056305;-71
2023/08/19 10:27:50;;;;;;;8.20;7.50;;;;;;;-128.00;-1.00;-1.00;105816;1251;1004687;-71
2023/08/19 10:30:22;;;;;;;6.30;5.90;;;;;;;-128.00;-1.00;-1.00;105825;1251;1004719;-72
2023/08/19 10:32:49;;;;;;;7.20;6.60;;;;;;;-128.00;-1.00;-1.00;105808;1251;1046262;-72
2023/08/19 10:35:17;;;;;;;7.30;6.60;;;;;;;-128.00;-1.00;-1.00;105772;1251;1004403;-72
2023/08/19 10:37:48;;;;;;;7.90;7.20;;;;;;;-128.00;-1.00;-1.00;105876;1251;1004691;-72
2023/08/19 10:40:23;;;;;;;7.00;6.30;;;;;;;-128.00;-1.00;-1.00;105816;1251;1058757;-72
2023/08/19 10:42:57;;;;;;;6.90;6.30;;;;;;;-128.00;-1.00;-1.00;105725;1251;1046669;-72
2023/08/19 10:45:31;;;;;;;8.00;6.30;;;;;;;-128.00;-1.00;-1.00;105786;1251;1046205;-72
2023/08/19 10:47:58;;;;;;;6.80;6.30;;;;;;;-128.00;-1.00;-1.00;105618;1251;1061543;-70
2023/08/19 10:50:25;;;;;;;7.30;6.60;;;;;;;-128.00;-1.00;-1.00;105791;1251;1003702;-72
2023/08/19 10:53:04;;;;;;;7.60;6.90;;;;;;;-128.00;-1.00;-1.00;105769;1251;1004683;-72
2023/08/19 10:55:53;;;;;;;7.40;6.70;;;;;;;-128.00;-1.00;-1.00;105806;1251;1044418;-72
2023/08/19 10:58:21;;;;;;;7.20;6.70;;;;;;;-128.00;-1.00;-1.00;105793;1251;1046358;-72
2023/08/19 11:00:49;;;;;;;7.40;6.80;;;;;;;-128.00;-1.00;-1.00;105843;1251;1004729;-72
2023/08/19 11:03:16;;;;;;;6.80;6.40;;;;;;;-128.00;-1.00;-1.00;105772;1251;1004347;-72
2023/08/19 11:05:49;;;;;;;7.10;6.60;;;;;;;-128.00;-1.00;-1.00;105764;1251;1004874;-72
2023/08/19 11:08:16;;;;;;;7.60;7.10;;;;;;;-128.00;-1.00;-1.00;105767;1251;1044239;-72
2023/08/19 11:10:46;;;;;;;8.10;7.40;;;;;;;-128.00;-1.00;-1.00;105842;1251;1004890;-71